« Back
NWS Peachtree City, Ga » Text Product » MCN Terminal Aerodrome Forecast


Printer-friendly Version
Current Version              Previous Versions:   1  2  3  4  5  6  7  8  9  

Terminal Aerodrome Forecast

466
FTUS42 KFFC 261720
TAFMCN
TAF
KMCN 261720Z 2618/2718 30013G23KT P6SM BKN030
     FM262300 30011KT P6SM BKN040
     FM271100 28006KT P6SM BKN025
     FM271400 30010KT P6SM SCT035=



USA.gov is the U.S. government's official web portal to all federal, state and local government web resources and services.